Time;durP1;ratioP1;P1;durP2;ratioP2;P2;SDS_P1;SDS_P2;PMS_P1;PMS_P2;Temp;Humidity;BMP_temperature;BMP_pressure;BME280_temperature;BME280_humidity;BME280_pressure;Samples;Min_cycle;Max_cycle;Signal;HPM_P1;HPM_P2
2023/06/27 00:00:21;;;;;;;9.02;2.10;;;;;;;;;;5033734;28;20040;-83
2023/06/27 00:02:47;;;;;;;7.25;1.90;;;;;;;;;;5038546;28;20045;-82
2023/06/27 00:05:14;;;;;;;8.13;2.13;;;20.40;78.30;;;;;;5025940;28;20072;-87
2023/06/27 00:07:44;;;;;;;5.78;2.10;;;20.40;78.50;;;;;;5041348;28;20037;-81
2023/06/27 00:10:10;;;;;;;;;;;20.40;78.50;;;;;;5022345;28;20025;-81
2023/06/27 00:12:36;;;;;;;8.05;2.25;;;;;;;;;;5019443;28;19913;-80
2023/06/27 00:15:05;;;;;;;5.38;1.92;;;20.40;78.60;;;;;;5020697;28;20075;-81
2023/06/27 00:17:33;;;;;;;4.95;1.73;;;;;;;;;;5020669;28;20021;-84
2023/06/27 00:19:59;;;;;;;5.80;1.80;;;;;;;;;;5019456;28;20060;-80
2023/06/27 00:22:26;;;;;;;5.25;1.77;;;;;;;;;;5033678;28;20028;-85
2023/06/27 00:24:52;;;;;;;8.27;2.05;;;;;;;;;;5018527;28;20029;-78
2023/06/27 00:27:18;;;;;;;5.88;1.80;;;;;;;;;;5018327;28;20029;-80
2023/06/27 00:29:44;;;;;;;5.57;1.90;;;;;;;;;;5034460;28;20492;-82
2023/06/27 00:32:10;;;;;;;4.20;1.67;;;;;;;;;;5013723;28;20025;-78
2023/06/27 00:34:36;;;;;;;4.22;2.00;;;;;;;;;;5018036;28;20034;-81
2023/06/27 00:37:02;;;;;;;5.57;1.95;;;;;;;;;;5028982;28;20414;-84
2023/06/27 00:39:28;;;;;;;7.60;1.90;;;;;;;;;;5013303;28;20477;-79
2023/06/27 00:41:54;;;;;;;7.15;1.95;;;;;;;;;;5031240;28;20124;-79
2023/06/27 00:44:20;;;;;;;7.22;2.22;;;;;;;;;;5017949;28;20045;-81
2023/06/27 00:46:48;;;;;;;8.20;1.92;;;20.00;82.20;;;;;;5016491;28;20040;-80
2023/06/27 00:49:17;;;;;;;10.00;2.03;;;19.90;82.30;;;;;;5026546;28;20029;-81
2023/06/27 00:51:46;;;;;;;6.97;2.22;;;19.90;82.30;;;;;;5021913;28;20025;-80
2023/06/27 00:54:12;;;;;;;4.40;1.45;;;19.90;82.40;;;;;;5014318;28;20029;-82
2023/06/27 00:56:39;;;;;;;3.83;1.40;;;19.90;81.90;;;;;;5031275;28;20029;-85
2023/06/27 00:59:05;;;;;;;4.18;1.60;;;;;;;;;;5035845;28;20048;-82
2023/06/27 01:01:31;;;;;;;7.63;1.60;;;;;;;;;;5035446;28;20048;-85
2023/06/27 01:03:58;;;;;;;6.90;1.80;;;;;;;;;;5045639;28;20093;-85
2023/06/27 01:06:52;;;;;;;4.57;1.98;;;19.80;81.90;;;;;;5027578;28;20256;-85
2023/06/27 01:09:27;;;;;;;3.47;1.50;;;19.80;82.10;;;;;;5047963;28;20025;-86
2023/06/27 01:11:57;;;;;;;6.47;1.77;;;;;;;;;;5041558;28;20022;-85
2023/06/27 01:14:25;;;;;;;4.38;1.60;;;19.70;82.10;;;;;;5040947;28;20050;-83
2023/06/27 01:16:52;;;;;;;4.13;1.80;;;19.70;82.00;;;;;;5015149;28;20036;-84
2023/06/27 01:19:25;;;;;;;3.53;1.80;;;19.70;82.60;;;;;;5044496;28;20097;-84
2023/06/27 01:22:03;;;;;;;5.32;1.80;;;19.70;83.00;;;;;;5048879;28;20010;-84
2023/06/27 01:24:31;;;;;;;5.88;1.70;;;;;;;;;;5046064;28;20018;-83
2023/06/27 01:26:58;;;;;;;8.63;1.92;;;;;;;;;;5037757;28;20025;-85
2023/06/27 01:29:25;;;;;;;7.53;2.10;;;19.60;84.30;;;;;;5045684;28;20053;-86
2023/06/27 01:32:05;;;;;;;5.30;1.65;;;19.50;84.40;;;;;;5031282;28;20102;-84
2023/06/27 01:34:44;;;;;;;7.38;2.30;;;19.50;84.90;;;;;;5037680;28;20044;-85
2023/06/27 01:37:19;;;;;;;5.20;1.85;;;19.40;85.20;;;;;;5033659;28;20033;-81
2023/06/27 01:39:50;;;;;;;7.10;2.10;;;19.40;85.70;;;;;;5020372;28;20021;-81
2023/06/27 01:42:24;;;;;;;7.40;2.38;;;19.30;85.90;;;;;;5016178;28;20048;-81
2023/06/27 01:44:51;;;;;;;6.72;2.33;;;19.30;86.00;;;;;;5030531;28;20547;-81
2023/06/27 01:47:17;;;;;;;6.15;2.10;;;;;;;;;;5012982;28;20190;-83
2023/06/27 01:49:43;;;;;;;5.40;2.10;;;19.30;86.40;;;;;;5037494;28;20047;-80
2023/06/27 01:52:13;;;;;;;7.65;2.10;;;;;;;;;;5044098;28;20025;-84
2023/06/27 01:54:40;;;;;;;5.33;1.63;;;19.20;86.50;;;;;;5032496;28;20009;-85
2023/06/27 01:57:07;;;;;;;5.70;1.90;;;;;;;;;;5052445;28;20009;-85
2023/06/27 02:02:22;;;;;;;6.00;2.13;;;19.10;86.90;;;;;;5036646;28;20053;-81
2023/06/27 02:04:49;;;;;;;4.60;2.03;;;;;;;;;;5044991;28;20093;-82
2023/06/27 02:07:27;;;;;;;6.70;2.47;;;;;;;;;;5055368;28;20021;-81
2023/06/27 02:10:11;;;;;;;6.72;2.10;;;18.90;87.20;;;;;;5050580;28;20026;-83
2023/06/27 02:12:42;;;;;;;4.93;1.77;;;;;;;;;;5048655;28;20364;-81
2023/06/27 02:15:09;;;;;;;5.75;1.70;;;;;;;;;;5051855;28;20109;-81
2023/06/27 02:17:35;;;;;;;3.35;1.60;;;;;;;;;;5049655;28;20022;-81
2023/06/27 02:20:08;;;;;;;5.20;1.58;;;;;;;;;;5054131;28;20110;-82
2023/06/27 02:23:15;;;;;;;6.45;1.83;;;;;;;;;;5045231;28;20026;-82
2023/06/27 02:26:13;;;;;;;5.57;2.05;;;;;;;;;;5055385;28;20033;-82
2023/06/27 02:29:11;;;;;;;6.25;1.90;;;;;;;;;;5061297;28;20060;-84
2023/06/27 02:35:15;;;;;;;;;;;18.70;89.50;;;;;;5058093;28;20024;-86
2023/06/27 02:38:19;;;;;;;7.47;2.25;;;;;;;;;;5064997;28;19983;-85
2023/06/27 02:41:01;;;;;;;4.72;1.85;;;;;;;;;;5054567;28;20113;-84
2023/06/27 02:43:40;;;;;;;4.80;2.05;;;;;;;;;;5059829;28;20009;-83
2023/06/27 02:46:35;;;;;;;6.20;2.00;;;;;;;;;;5039022;28;20077;-82
2023/06/27 02:49:36;;;;;;;6.72;2.00;;;18.60;89.60;;;;;;5041359;28;20051;-82
2023/06/27 02:52:22;;;;;;;6.10;2.03;;;;;;;;;;5055910;28;20105;-83
2023/06/27 02:55:10;;;;;;;5.70;1.92;;;;;;;;;;5062762;28;20029;-84
2023/06/27 02:58:15;;;;;;;6.38;1.92;;;;;;;;;;5059067;28;20056;-82
2023/06/27 03:00:47;;;;;;;6.13;1.95;;;;;;;;;;5058987;28;20078;-83
2023/06/27 03:03:17;;;;;;;7.30;2.10;;;;;;;;;;5040889;28;20014;-82
2023/06/27 03:05:54;;;;;;;5.13;1.80;;;;;;;;;;5059815;28;20069;-83
2023/06/27 03:08:24;;;;;;;5.43;1.70;;;;;;;;;;5058510;28;20033;-82
2023/06/27 03:10:53;;;;;;;8.32;2.33;;;;;;;;;;5058957;28;20027;-82
2023/06/27 03:13:27;;;;;;;5.38;1.73;;;;;;;;;;5051040;28;20028;-84
2023/06/27 03:16:20;;;;;;;6.65;1.75;;;;;;;;;;5059443;28;20013;-83
2023/06/27 03:18:56;;;;;;;7.88;2.15;;;;;;;;;;5058993;28;20441;-82
2023/06/27 03:21:52;;;;;;;9.07;2.03;;;;;;;;;;5058980;28;20021;-83
2023/06/27 03:24:24;;;;;;;10.82;2.28;;;;;;;;;;5055436;28;20056;-86
2023/06/27 03:27:13;;;;;;;5.30;2.10;;;;;;;;;;5059342;28;20013;-84
2023/06/27 03:29:39;;;;;;;6.65;2.25;;;;;;;;;;5074290;23;20025;-79
2023/06/27 03:32:05;;;;;;;6.60;1.83;;;;;;;;;;5043777;28;20078;-82
2023/06/27 03:34:31;;;;;;;5.85;2.00;;;;;;;;;;5042031;28;20017;-84
2023/06/27 03:36:58;;;;;;;5.70;1.80;;;;;;;;;;5053549;28;20048;-82
2023/06/27 03:39:24;;;;;;;5.10;1.95;;;;;;;;;;5035272;28;20056;-81
2023/06/27 03:41:50;;;;;;;9.05;2.53;;;;;;;;;;5054463;28;20034;-85
2023/06/27 03:44:18;;;;;;;5.55;1.83;;;;;;;;;;5054292;28;20033;-85
2023/06/27 03:46:44;;;;;;;6.32;2.33;;;;;;;;;;5058554;28;20015;-82
2023/06/27 03:49:10;;;;;;;6.38;2.03;;;;;;;;;;5052300;28;20049;-86
2023/06/27 03:51:37;;;;;;;4.20;1.60;;;;;;;;;;5054698;28;20045;-83
2023/06/27 03:54:06;;;;;;;7.55;1.90;;;;;;;;;;5050666;28;20021;-87
2023/06/27 03:56:32;;;;;;;5.30;1.98;;;;;;;;;;5029551;28;20044;-85
2023/06/27 03:58:58;;;;;;;9.13;2.15;;;;;;;;;;5037692;28;20033;-83
2023/06/27 04:01:24;;;;;;;7.05;1.75;;;;;;;;;;5050848;28;20017;-80
2023/06/27 04:03:51;;;;;;;6.60;1.98;;;;;;;;;;5055081;28;20084;-79
2023/06/27 04:06:18;;;;;;;6.25;2.13;;;;;;;;;;5044212;28;20021;-79
2023/06/27 04:08:44;;;;;;;7.88;2.15;;;;;;;;;;5018662;28;20087;-80
2023/06/27 04:11:10;;;;;;;4.78;2.10;;;;;;;;;;5028861;28;20393;-79
2023/06/27 04:13:37;;;;;;;3.95;1.80;;;;;;;;;;5019281;28;20093;-78
2023/06/27 04:16:03;;;;;;;7.82;2.10;;;;;;;;;;5012095;28;20666;-79
2023/06/27 04:18:32;;;;;;;4.95;1.67;;;;;;;;;;5011045;28;20060;-81
2023/06/27 04:20:59;;;;;;;7.00;1.92;;;;;;;;;;5022071;28;20038;-80
2023/06/27 04:23:25;;;;;;;5.25;1.63;;;;;;;;;;5029899;28;20030;-79
2023/06/27 04:26:14;;;;;;;8.75;2.13;;;;;;;;;;5030144;28;20025;-78
2023/06/27 04:28:41;;;;;;;7.10;1.98;;;;;;;;;;5009213;28;20048;-78
2023/06/27 04:31:07;;;;;;;6.22;1.75;;;;;;;;;;5029238;28;20072;-78
2023/06/27 04:33:35;;;;;;;8.13;1.70;;;;;;;;;;5011475;28;20096;-80
2023/06/27 04:36:02;;;;;;;6.57;1.88;;;;;;;;;;5026481;28;20144;-79
2023/06/27 04:38:29;;;;;;;5.07;1.80;;;;;;;;;;5033033;28;20440;-79
2023/06/27 04:40:55;;;;;;;4.35;1.73;;;;;;;;;;5012662;28;20037;-79
2023/06/27 04:43:21;;;;;;;6.18;1.70;;;;;;;;;;5018316;28;20261;-78
2023/06/27 04:45:47;;;;;;;7.53;2.90;;;;;;;;;;5022228;28;20220;-80
2023/06/27 04:48:13;;;;;;;5.50;1.88;;;;;;;;;;5021490;28;20033;-79
2023/06/27 04:50:39;;;;;;;7.50;1.85;;;17.80;93.30;;;;;;5029801;28;20032;-79
2023/06/27 04:53:04;;;;;;;8.82;2.25;;;18.40;93.60;;;;;;5025428;28;20030;-79
2023/06/27 04:55:31;;;;;;;5.85;1.77;;;17.80;93.40;;;;;;5014200;28;20379;-78
2023/06/27 04:57:57;;;;;;;4.47;1.80;;;;;;;;;;5022300;28;20555;-79
2023/06/27 05:00:22;;;;;;;5.25;2.00;;;17.90;93.20;;;;;;5023729;28;20073;-78
2023/06/27 05:02:48;;;;;;;6.05;2.20;;;18.00;93.40;;;;;;5021422;28;20034;-78
2023/06/27 05:05:14;;;;;;;5.53;2.10;;;18.00;93.40;;;;;;5011286;28;20037;-81
2023/06/27 05:07:39;;;;;;;4.60;1.85;;;18.10;93.20;;;;;;5030691;28;20021;-81
2023/06/27 05:10:05;;;;;;;8.43;2.30;;;18.20;93.10;;;;;;5026848;28;20044;-79
2023/06/27 05:12:31;;;;;;;12.30;2.20;;;18.20;93.30;;;;;;5011986;28;20021;-79
2023/06/27 05:14:57;;;;;;;6.18;2.22;;;18.30;92.90;;;;;;5012757;28;20116;-80
2023/06/27 05:17:22;;;;;;;7.03;2.05;;;18.30;93.10;;;;;;5009773;28;20036;-80
2023/06/27 05:19:48;;;;;;;6.30;1.92;;;;;;;;;;5013306;28;20029;-78
2023/06/27 05:22:14;;;;;;;5.55;1.75;;;;;;;;;;5017185;28;20079;-83
2023/06/27 05:24:40;;;;;;;4.88;2.10;;;;;;;;;;5020637;28;20420;-81
2023/06/27 05:27:06;;;;;;;3.88;1.70;;;19.00;91.40;;;;;;5010159;28;20061;-81
2023/06/27 05:29:32;;;;;;;6.72;2.17;;;19.20;91.10;;;;;;5016117;28;20421;-80
2023/06/27 05:31:58;;;;;;;4.65;1.80;;;;;;;;;;5017864;28;20030;-80
2023/06/27 05:34:25;;;;;;;6.25;2.20;;;20.00;89.40;;;;;;5030570;28;20603;-86
2023/06/27 05:36:50;;;;;;;5.03;1.50;;;20.50;87.70;;;;;;5015423;28;20017;-81
2023/06/27 05:39:16;;;;;;;9.13;2.30;;;;;;;;;;5018409;28;20104;-82
2023/06/27 05:41:43;;;;;;;34.08;3.75;;;;;;;;;;4994000;28;20083;-83
2023/06/27 05:44:09;;;;;;;10.93;2.25;;;;;;;;;;5025689;28;20033;-81
2023/06/27 05:46:39;;;;;;;6.72;2.13;;;;;;;;;;5024156;28;20026;-82
2023/06/27 05:49:05;;;;;;;8.27;1.92;;;;;;;;;;5028402;28;20572;-82
2023/06/27 05:51:31;;;;;;;6.20;1.65;;;;;;;;;;5012732;28;20490;-81
2023/06/27 05:53:57;;;;;;;3.60;1.88;;;;;;;;;;5026284;28;20025;-81
2023/06/27 05:56:23;;;;;;;5.90;1.70;;;;;;;;;;5012022;28;20441;-82
2023/06/27 05:58:49;;;;;;;9.48;2.17;;;;;;;;;;5031667;28;20033;-83
2023/06/27 06:01:15;;;;;;;9.73;2.22;;;;;;;;;;5023339;28;20488;-80
2023/06/27 06:03:43;;;;;;;6.90;2.28;;;;;;;;;;5027726;28;20033;-81
2023/06/27 06:06:11;;;;;;;7.88;2.17;;;;;;;;;;5035725;28;20025;-81
2023/06/27 06:08:40;;;;;;;10.13;2.28;;;;;;;;;;5029467;28;20417;-80
2023/06/27 06:11:06;;;;;;;5.88;2.03;;;;;;;;;;5015036;28;20029;-81
2023/06/27 06:13:32;;;;;;;8.50;2.15;;;;;;;;;;5020375;28;20033;-82
2023/06/27 06:15:58;;;;;;;8.00;2.17;;;;;;;;;;5016766;28;20033;-80
2023/06/27 06:18:24;;;;;;;7.93;2.72;;;;;;;;;;5020721;28;20037;-81
2023/06/27 06:20:50;;;;;;;6.35;1.90;;;;;;;;;;5021753;28;20029;-80
2023/06/27 06:23:16;;;;;;;5.60;1.70;;;;;;;;;;5020210;28;20037;-80
2023/06/27 06:25:42;;;;;;;10.05;2.35;;;;;;;;;;5033168;28;20048;-81
2023/06/27 06:28:08;;;;;;;6.47;2.00;;;;;;;;;;5013853;28;20022;-80
2023/06/27 06:30:34;;;;;;;5.93;1.88;;;;;;;;;;5027001;28;20029;-81
2023/06/27 06:33:00;;;;;;;8.52;2.38;;;;;;;;;;5011102;28;20026;-80
2023/06/27 06:35:27;;;;;;;7.88;2.22;;;;;;;;;;4994449;28;20393;-80
2023/06/27 06:37:53;;;;;;;5.40;2.60;;;;;;;;;;5032708;28;20022;-80
2023/06/27 06:40:19;;;;;;;4.85;2.20;;;;;;;;;;5014275;28;20038;-80
2023/06/27 06:42:45;;;;;;;7.22;2.08;;;;;;;;;;5018830;28;20407;-81
2023/06/27 06:45:11;;;;;;;7.38;1.98;;;;;;;;;;5032615;28;20121;-80
2023/06/27 06:47:38;;;;;;;6.22;2.20;;;;;;;;;;5018693;28;20600;-81
2023/06/27 06:50:04;;;;;;;5.63;1.95;;;;;;;;;;5031226;28;20033;-80
2023/06/27 06:52:30;;;;;;;4.70;2.10;;;;;;;;;;5013642;28;20531;-81
2023/06/27 06:54:56;;;;;;;6.85;1.80;;;;;;;;;;5037576;28;20382;-82
2023/06/27 06:57:22;;;;;;;6.05;1.83;;;;;;;;;;5038420;28;20068;-79
2023/06/27 06:59:48;;;;;;;8.30;3.22;;;;;;;;;;5016824;28;20409;-81
2023/06/27 07:02:15;;;;;;;4.05;1.90;;;;;;;;;;5013988;28;20034;-83
2023/06/27 07:04:41;;;;;;;10.30;1.80;;;;;;;;;;5019157;28;20120;-82
2023/06/27 07:07:07;;;;;;;4.13;1.90;;;;;;;;;;5035285;28;20018;-85
2023/06/27 07:09:33;;;;;;;5.43;1.92;;;;;;;;;;5059833;28;20060;-85
2023/06/27 07:11:59;;;;;;;9.93;1.85;;;;;;;;;;5037810;28;20033;-87
2023/06/27 07:14:25;;;;;;;6.18;1.88;;;;;;;;;;5057750;28;20021;-82
2023/06/27 07:16:52;;;;;;;6.45;2.00;;;;;;;;;;5050861;28;20036;-80
2023/06/27 07:19:18;;;;;;;5.70;2.05;;;;;;;;;;5034972;28;20485;-80
2023/06/27 07:21:47;;;;;;;6.88;1.60;;;;;;;;;;5009239;28;20033;-79
2023/06/27 07:24:13;;;;;;;5.57;2.08;;;;;;;;;;5037607;28;20029;-79
2023/06/27 07:26:39;;;;;;;7.03;1.90;;;;;;;;;;5035918;28;20021;-79
2023/06/27 07:29:08;;;;;;;4.80;1.77;;;;;;;;;;5021984;28;20037;-84
2023/06/27 07:31:34;;;;;;;6.03;1.83;;;;;;;;;;5030928;28;20029;-79
2023/06/27 07:34:01;;;;;;;4.07;1.73;;;;;;;;;;5017587;28;20264;-79
2023/06/27 07:36:27;;;;;;;6.85;1.88;;;;;;;;;;5028893;28;20026;-79
2023/06/27 07:38:53;;;;;;;8.57;1.70;;;;;;;;;;5024446;28;20034;-79
2023/06/27 07:41:19;;;;;;;4.35;1.75;;;;;;;;;;5039166;28;20033;-80
2023/06/27 07:43:49;;;;;;;8.18;1.83;;;;;;;;;;5018474;28;20508;-82
2023/06/27 07:46:17;;;;;;;5.73;1.80;;;;;;;;;;5027530;28;20033;-82
2023/06/27 07:48:43;;;;;;;4.68;1.65;;;;;;;;;;5013135;28;20029;-79
2023/06/27 07:51:09;;;;;;;5.60;1.60;;;;;;;;;;5024979;28;20061;-80
2023/06/27 07:53:36;;;;;;;4.05;2.13;;;;;;;;;;5018967;28;20029;-80
2023/06/27 07:56:04;;;;;;;5.93;2.15;;;;;;;;;;5018138;28;20470;-80
2023/06/27 07:58:34;;;;;;;4.10;1.80;;;;;;;;;;5021717;28;20029;-82
2023/06/27 08:01:00;;;;;;;5.23;2.00;;;;;;;;;;5029444;28;20049;-80
2023/06/27 08:03:28;;;;;;;7.00;2.38;;;;;;;;;;5024818;28;20331;-80
2023/06/27 08:05:55;;;;;;;4.35;2.05;;;;;;;;;;5033948;28;20028;-80
2023/06/27 08:08:21;;;;;;;7.00;2.35;;;;;;;;;;5018100;28;20026;-79
2023/06/27 08:10:47;;;;;;;3.20;1.55;;;;;;;;;;5015008;28;20026;-80
2023/06/27 08:13:13;;;;;;;4.22;1.83;;;;;;;;;;5031423;28;20029;-79
2023/06/27 08:15:42;;;;;;;10.05;2.30;;;;;;;;;;5020556;28;20021;-86
2023/06/27 08:18:12;;;;;;;6.23;2.20;;;;;;;;;;5035014;28;20034;-81
2023/06/27 08:20:41;;;;;;;5.43;1.88;;;;;;;;;;5037947;28;20021;-80
2023/06/27 08:23:07;;;;;;;5.70;2.08;;;;;;;;;;5034905;28;20029;-81
2023/06/27 08:25:33;;;;;;;7.15;2.08;;;;;;;;;;5018646;28;20055;-79
2023/06/27 08:28:00;;;;;;;6.80;1.85;;;;;;;;;;5016390;28;20091;-81
2023/06/27 08:30:31;;;;;;;6.80;2.03;;;22.70;80.40;;;;;;5025592;28;20040;-80
2023/06/27 08:32:57;;;;;;;5.82;1.95;;;;;;;;;;5020414;28;20117;-79
2023/06/27 08:35:23;;;;;;;8.38;2.20;;;;;;;;;;5033879;28;20025;-80
2023/06/27 08:37:49;;;;;;;4.45;1.80;;;;;;;;;;5023742;28;20033;-80
2023/06/27 08:40:20;;;;;;;8.13;1.90;;;;;;;;;;5030778;28;20039;-83
2023/06/27 08:42:47;;;;;;;9.00;2.08;;;;;;;;;;5035508;28;20030;-79
2023/06/27 08:45:13;;;;;;;5.20;1.55;;;;;;;;;;5020449;28;20040;-80
2023/06/27 08:47:43;;;;;;;9.00;2.10;;;;;;;;;;5018364;28;20034;-80
2023/06/27 08:50:13;;;;;;;6.35;1.63;;;;;;;;;;5019496;28;20033;-79
2023/06/27 08:52:51;;;;;;;5.80;1.90;;;22.80;79.10;;;;;;5036910;28;20065;-80
2023/06/27 08:55:23;;;;;;;3.40;1.52;;;;;;;;;;5018570;28;20026;-80
2023/06/27 08:57:54;;;;;;;4.95;2.00;;;23.10;78.50;;;;;;5019560;28;20025;-79
2023/06/27 09:00:25;;;;;;;5.97;2.28;;;23.30;77.80;;;;;;5010292;28;20029;-80
2023/06/27 09:02:52;;;;;;;6.50;2.08;;;;;;;;;;5016335;28;20121;-80
2023/06/27 09:05:27;;;;;;;5.50;1.90;;;;;;;;;;5037050;28;20029;-81
2023/06/27 09:07:56;;;;;;;7.25;2.17;;;;;;;;;;5026312;28;20033;-81
2023/06/27 09:10:22;;;;;;;7.13;2.10;;;;;;;;;;5048352;28;20021;-84
2023/06/27 09:12:52;;;;;;;12.63;2.80;;;23.50;76.40;;;;;;5130840;23;20051;-80
2023/06/27 09:15:18;;;;;;;8.48;2.60;;;;;;;;;;5027632;28;20451;-81
2023/06/27 09:17:44;;;;;;;8.23;2.17;;;;;;;;;;5033139;28;20122;-80
2023/06/27 09:20:15;;;;;;;7.88;2.03;;;;;;;;;;5028892;28;20033;-79
2023/06/27 09:22:41;;;;;;;8.32;2.10;;;;;;;;;;5032338;28;20037;-81
2023/06/27 09:25:27;;;;;;;6.30;2.45;;;;;;;;;;5032889;28;20014;-80
2023/06/27 09:27:58;;;;;;;5.57;2.05;;;23.70;72.50;;;;;;5026937;28;20117;-80
2023/06/27 09:30:58;;;;;;;6.70;1.85;;;23.60;72.80;;;;;;5028715;28;20041;-82
2023/06/27 09:33:38;;;;;;;8.07;2.35;;;;;;;;;;5030091;28;20017;-81
2023/06/27 09:36:30;;;;;;;8.32;2.63;;;;;;;;;;5017539;28;20113;-82
2023/06/27 09:39:16;;;;;;;6.47;1.73;;;23.70;74.00;;;;;;5030397;28;20045;-81
2023/06/27 09:41:57;;;;;;;5.78;2.20;;;23.40;74.20;;;;;;5030074;28;20033;-80
2023/06/27 09:44:37;;;;;;;10.95;3.35;;;;;;;;;;5035600;28;20043;-80
2023/06/27 09:47:14;;;;;;;8.93;2.15;;;;;;;;;;5029673;28;20033;-79
2023/06/27 09:49:57;;;;;;;6.60;2.00;;;23.90;71.80;;;;;;5032947;28;20388;-83
2023/06/27 09:52:38;;;;;;;7.90;3.80;;;24.00;71.40;;;;;;5015084;28;20038;-80
2023/06/27 09:55:26;;;;;;;6.40;2.10;;;;;;;;;;5004642;28;20120;-79
2023/06/27 09:57:54;;;;;;;6.30;1.90;;;;;;;;;;5012189;28;20037;-79
2023/06/27 10:00:21;;;;;;;4.25;1.98;;;24.00;71.40;;;;;;5015067;28;20018;-80
2023/06/27 10:02:51;;;;;;;7.13;2.10;;;24.00;70.20;;;;;;5012027;28;20029;-79
2023/06/27 10:05:18;;;;;;;4.57;1.98;;;;;;;;;;5012442;28;20031;-80
2023/06/27 10:08:46;;;;;;;6.97;2.03;;;23.70;69.40;;;;;;5012340;28;20037;-81
2023/06/27 10:11:29;;;;;;;3.55;1.58;;;23.70;69.20;;;;;;5009852;28;20419;-80
2023/06/27 10:13:57;;;;;;;6.50;1.90;;;;;;;;;;5016059;28;20062;-78
2023/06/27 10:16:30;;;;;;;5.60;1.70;;;24.00;67.90;;;;;;5014081;28;20038;-79
2023/06/27 10:19:01;;;;;;;6.53;1.88;;;;;;;;;;5013197;28;20026;-78
2023/06/27 10:21:31;;;;;;;7.38;1.83;;;;;;;;;;5005821;28;20030;-82
2023/06/27 10:24:06;;;;;;;7.07;1.90;;;;;;;;;;5020151;28;20022;-81
2023/06/27 10:26:39;;;;;;;6.10;2.10;;;;;;;;;;5012220;28;20037;-80
2023/06/27 10:29:22;;;;;;;7.88;2.20;;;;;;;;;;5007968;28;20097;-80
2023/06/27 10:31:59;;;;;;;6.28;1.83;;;;;;;;;;5005881;28;20057;-79
2023/06/27 10:34:50;;;;;;;5.43;2.08;;;;;;;;;;5016219;28;20542;-79
2023/06/27 10:37:27;;;;;;;9.20;2.72;;;24.60;69.80;;;;;;5011485;28;20125;-82
2023/06/27 10:40:08;;;;;;;3.20;1.52;;;24.70;68.20;;;;;;5015001;28;20033;-82
2023/06/27 10:42:38;;;;;;;6.22;1.70;;;;;;;;;;5032496;28;20040;-80
2023/06/27 10:45:05;;;;;;;7.03;1.83;;;;;;;;;;5031734;28;20033;-82
2023/06/27 10:47:35;;;;;;;9.90;3.45;;;;;;;;;;5036311;28;20022;-82
2023/06/27 10:50:09;;;;;;;6.45;2.03;;;24.80;66.90;;;;;;5035644;28;20058;-81
2023/06/27 10:52:36;;;;;;;4.43;1.90;;;;;;;;;;5031701;28;20021;-80
2023/06/27 10:55:15;;;;;;;7.15;2.28;;;;;;;;;;5036014;28;20018;-81
2023/06/27 10:57:48;;;;;;;5.78;1.70;;;25.10;66.50;;;;;;5036160;28;20097;-81
2023/06/27 11:00:14;;;;;;;9.98;6.65;;;;;;;;;;5033369;28;20030;-81
2023/06/27 11:02:47;;;;;;;8.23;2.17;;;;;;;;;;5031192;28;20042;-80
2023/06/27 11:05:17;;;;;;;5.22;1.88;;;;;;;;;;5030368;28;20006;-80
2023/06/27 11:07:53;;;;;;;3.45;1.60;;;25.20;66.10;;;;;;5036277;28;20038;-79
2023/06/27 11:10:23;;;;;;;5.57;1.80;;;;;;;;;;5014001;28;20038;-80
2023/06/27 11:12:49;;;;;;;;;;;25.10;66.20;;;;;;5034107;28;20026;-80
2023/06/27 11:15:17;;;;;;;4.10;2.00;;;;;;;;;;5021771;28;19946;-80
2023/06/27 11:17:46;;;;;;;5.28;1.60;;;;;;;;;;5015632;28;20029;-81
2023/06/27 11:20:16;;;;;;;3.92;1.48;;;25.50;65.60;;;;;;5022674;28;20498;-80
2023/06/27 11:22:43;;;;;;;4.32;1.73;;;;;;;;;;5037377;28;20041;-81
2023/06/27 11:25:15;;;;;;;7.00;1.80;;;;;;;;;;5013043;28;20045;-81
2023/06/27 11:27:42;;;;;;;6.72;1.90;;;;;;;;;;5037419;28;20034;-81
2023/06/27 11:30:10;;;;;;;4.75;1.65;;;;;;;;;;5017001;28;20041;-81
2023/06/27 11:32:37;;;;;;;5.88;2.20;;;;;;;;;;5025229;28;20017;-81
2023/06/27 11:35:08;;;;;;;5.10;1.70;;;;;;;;;;5011727;28;20444;-80
2023/06/27 11:37:34;;;;;;;7.57;1.90;;;;;;;;;;5021768;28;20026;-81
2023/06/27 11:40:06;;;;;;;6.88;2.13;;;;;;;;;;5014079;28;20033;-81
2023/06/27 11:42:37;;;;;;;6.30;2.20;;;;;;;;;;5035089;28;20030;-81
2023/06/27 11:45:04;;;;;;;5.45;1.90;;;;;;;;;;5022336;28;20033;-81
2023/06/27 11:47:31;;;;;;;6.70;2.03;;;;;;;;;;5006182;28;20040;-80
2023/06/27 11:50:07;;;;;;;5.82;1.75;;;;;;;;;;5023760;28;20463;-80
2023/06/27 11:52:37;;;;;;;4.65;1.83;;;;;;;;;;5023472;28;20026;-81
2023/06/27 11:55:05;;;;;;;4.63;1.83;;;;;;;;;;5022564;28;20050;-81
2023/06/27 11:57:51;;;;;;;5.57;1.63;;;;;;;;;;5020220;28;20582;-81
2023/06/27 12:00:20;;;;;;;4.88;1.70;;;;;;;;;;5035586;28;20034;-82
2023/06/27 12:02:52;;;;;;;5.65;1.75;;;;;;;;;;5023681;28;20037;-81
2023/06/27 12:05:19;;;;;;;4.07;1.38;;;;;;;;;;5019330;28;20037;-80
2023/06/27 12:07:56;;;;;;;5.55;1.60;;;;;;;;;;5024078;28;20036;-81
2023/06/27 12:10:22;;;;;;;4.47;1.92;;;;;;;;;;5019316;28;20034;-81
2023/06/27 12:12:49;;;;;;;7.13;1.90;;;26.00;62.50;;;;;;5027511;28;20093;-82
2023/06/27 12:15:18;;;;;;;5.63;1.75;;;25.90;62.50;;;;;;5021204;28;20034;-81
2023/06/27 12:18:02;;;;;;;5.13;1.67;;;25.70;62.00;;;;;;5022548;28;20034;-81
2023/06/27 12:20:42;;;;;;;5.03;1.60;;;;;;;;;;5018641;28;20037;-82
2023/06/27 12:23:09;;;;;;;6.57;1.70;;;;;;;;;;5005806;28;20041;-82
2023/06/27 12:25:37;;;;;;;6.40;1.70;;;;;;;;;;5022855;28;20034;-81
2023/06/27 12:28:07;;;;;;;5.50;1.70;;;;;;;;;;5021176;28;20059;-81
2023/06/27 12:30:34;;;;;;;5.00;1.60;;;;;;;;;;5022221;28;20117;-82
2023/06/27 12:33:01;;;;;;;8.68;1.67;;;;;;;;;;5020063;28;20029;-81
2023/06/27 12:35:28;;;;;;;6.30;2.05;;;;;;;;;;5019844;28;20030;-80
2023/06/27 12:37:54;;;;;;;5.85;1.52;;;;;;;;;;5021087;28;20111;-80
2023/06/27 12:40:26;;;;;;;5.18;1.90;;;25.80;62.70;;;;;;5021284;28;20192;-81
2023/06/27 12:42:54;;;;;;;3.88;1.70;;;;;;;;;;5021626;28;20045;-81
2023/06/27 12:45:22;;;;;;;4.57;1.52;;;;;;;;;;5020506;28;20052;-81
2023/06/27 12:47:48;;;;;;;4.35;1.50;;;;;;;;;;5019108;28;20037;-81
2023/06/27 12:50:20;;;;;;;7.13;1.70;;;26.10;60.50;;;;;;5022755;28;20033;-80
2023/06/27 12:52:50;;;;;;;4.95;1.83;;;;;;;;;;5022094;28;20037;-81
2023/06/27 12:55:19;;;;;;;6.10;1.58;;;;;;;;;;5024895;28;20026;-81
2023/06/27 12:57:48;;;;;;;3.50;1.50;;;;;;;;;;5020508;28;20065;-81
2023/06/27 13:00:20;;;;;;;5.47;2.00;;;;;;;;;;5019937;28;20033;-81
2023/06/27 13:02:49;;;;;;;5.55;1.88;;;;;;;;;;5016263;28;20033;-81
2023/06/27 13:05:25;;;;;;;8.60;2.00;;;;;;;;;;5022223;28;20030;-81
2023/06/27 13:07:52;;;;;;;3.63;1.50;;;;;;;;;;5023131;28;20025;-81
2023/06/27 13:10:19;;;;;;;6.88;1.65;;;;;;;;;;5033491;28;20041;-81
2023/06/27 13:12:47;;;;;;;6.35;1.88;;;;;;;;;;5026294;28;20097;-81
2023/06/27 13:15:13;;;;;;;2.25;1.30;;;;;;;;;;5022622;28;20026;-81
2023/06/27 13:17:41;;;;;;;3.78;1.70;;;;;;;;;;5022834;28;20033;-80
2023/06/27 13:20:07;;;;;;;4.82;1.83;;;;;;;;;;5023515;28;20029;-80
2023/06/27 13:22:35;;;;;;;7.45;1.60;;;;;;;;;;5021662;28;20403;-81
2023/06/27 13:25:08;;;;;;;4.28;1.70;;;;;;;;;;5023142;28;20076;-81
2023/06/27 13:27:36;;;;;;;7.75;1.60;;;;;;;;;;5023030;28;20049;-80
2023/06/27 13:30:03;;;;;;;6.47;1.80;;;;;;;;;;5015256;28;20049;-81
2023/06/27 13:32:32;;;;;;;4.22;1.90;;;26.10;60.60;;;;;;5034003;28;20017;-81
2023/06/27 13:35:02;;;;;;;4.32;1.80;;;;;;;;;;5035120;28;20029;-81
2023/06/27 13:37:30;;;;;;;5.43;1.83;;;;;;;;;;5029251;28;20045;-81
2023/06/27 13:40:03;;;;;;;6.25;1.67;;;25.80;60.70;;;;;;5031510;28;20481;-80
2023/06/27 13:42:38;;;;;;;5.90;1.77;;;;;;;;;;5022483;28;20109;-81
2023/06/27 13:45:06;;;;;;;4.70;1.90;;;;;;;;;;5027770;28;20029;-81
2023/06/27 13:47:33;;;;;;;4.00;1.75;;;;;;;;;;5032934;28;20030;-80
2023/06/27 13:49:59;;;;;;;7.55;2.28;;;;;;;;;;5027312;28;20057;-81
2023/06/27 13:52:26;;;;;;;7.25;2.10;;;;;;;;;;5032427;28;20030;-80
2023/06/27 13:54:53;;;;;;;6.85;2.20;;;;;;;;;;5033282;28;20018;-80
2023/06/27 13:57:19;;;;;;;8.02;2.15;;;;;;;;;;5033150;28;20053;-80
2023/06/27 13:59:46;;;;;;;6.97;2.45;;;;;;;;;;5031484;28;20026;-80
2023/06/27 14:02:11;;;;;;;6.30;1.55;;;27.10;58.30;;;;;;5024750;23;21110;-79
2023/06/27 14:04:38;;;;;;;5.00;1.85;;;27.00;58.70;;;;;;5035056;28;20017;-80
2023/06/27 14:07:04;;;;;;;5.18;2.13;;;27.10;58.50;;;;;;5014319;28;20029;-79
2023/06/27 14:09:31;;;;;;;6.63;1.83;;;27.10;57.40;;;;;;5030063;28;20436;-79
2023/06/27 14:11:57;;;;;;;3.60;1.60;;;27.00;57.50;;;;;;5009065;28;20026;-79
2023/06/27 14:14:22;;;;;;;5.13;1.88;;;26.90;57.70;;;;;;5014129;28;20037;-80
2023/06/27 14:16:50;;;;;;;4.50;1.85;;;;;;;;;;4993736;28;20500;-80
2023/06/27 14:19:16;;;;;;;4.60;1.77;;;27.20;57.70;;;;;;5016631;28;20538;-80
2023/06/27 14:21:42;;;;;;;5.65;1.60;;;;;;;;;;4997054;28;20069;-80
2023/06/27 14:24:09;;;;;;;7.18;1.75;;;27.30;58.00;;;;;;5013509;28;20116;-80
2023/06/27 14:26:36;;;;;;;5.88;1.90;;;27.40;57.30;;;;;;5011782;28;20407;-80
2023/06/27 14:29:02;;;;;;;4.22;1.80;;;;;;;;;;4991754;28;20595;-80
2023/06/27 14:31:28;;;;;;;3.63;1.77;;;27.20;56.60;;;;;;5013091;28;20036;-80
2023/06/27 14:33:54;;;;;;;5.03;2.03;;;;;;;;;;4998744;28;20070;-79
2023/06/27 14:36:20;;;;;;;4.97;1.58;;;;;;;;;;5008625;28;20021;-80